| time (UTC) | temp F | wind direction | speed MPH | gust MPH | rain 1hr in | rain 24hr in | rain mn in | humidity % | barometer mb |
| 20260506182602 | 64 | 198 | 2.0 | 3.0 | 0.00 | 0.05 | 0.05 | 96 | 1008.5 |
| 20260506182058 | 63 | 101 | 1.0 | 7.0 | 0.00 | 0.05 | 0.05 | 96 | 1008.6 |
| 20260506181556 | 63 | 155 | 3.0 | 7.0 | 0.07 | 0.05 | 0.05 | 96 | 1008.5 |
| 20260506181053 | 63 | 193 | 1.0 | 10.0 | 0.12 | 0.05 | 0.05 | 96 | 1008.7 |
| 20260506180550 | 63 | 225 | 3.0 | 5.0 | 0.05 | 0.04 | 0.04 | 95 | 1008.6 |
| 20260506180046 | 63 | 184 | 2.0 | 6.0 | 0.07 | 0.03 | 0.03 | 94 | 1009.1 |
| 20260506175543 | 63 | 195 | 1.0 | 5.0 | 0.07 | 0.03 | 0.03 | 93 | 1008.9 |
| 20260506175039 | 64 | 223 | 6.0 | 9.0 | 0.05 | 0.02 | 0.02 | 92 | 1008.7 |
| 20260506174538 | 65 | 191 | 5.0 | 10.0 | 0.12 | 0.02 | 0.02 | 89 | 1008.9 |
| 20260506174033 | 67 | 140 | 1.0 | 5.0 | 0.00 | 0.00 | 0.00 | 83 | 1009.0 |
| 20260506173532 | 68 | 183 | 3.0 | 5.0 | 0.00 | 0.00 | 0.00 | 80 | 1008.7 |
| 20260506173028 | 70 | 283 | 5.0 | 7.0 | 0.00 | 0.00 | 0.00 | 73 | 1008.8 |
| 20260506172526 | 70 | 166 | 0.0 | 3.0 | 0.00 | 0.00 | 0.00 | 73 | 1008.9 |
| 20260506172022 | 70 | 220 | 5.0 | 7.0 | 0.00 | 0.00 | 0.00 | 71 | 1008.8 |
| 20260506171519 | 71 | 200 | 1.0 | 2.0 | 0.00 | 0.00 | 0.00 | 71 | 1008.9 |
| 20260506171017 | 71 | 70 | 1.0 | 2.0 | 0.00 | 0.00 | 0.00 | 72 | 1008.8 |
| 20260506170515 | 72 | 167 | 9.0 | 15.0 | 0.00 | 0.00 | 0.00 | 69 | 1009.0 |
| 20260506170012 | 72 | 194 | 2.0 | 3.0 | 0.00 | 0.00 | 0.00 | 69 | 1008.7 |
| 20260506165510 | 73 | 169 | 2.0 | 2.0 | 0.00 | 0.00 | 0.00 | 66 | 1008.8 |
| 20260506165005 | 72 | 196 | 2.0 | 10.0 | 0.00 | 0.00 | 0.00 | 66 | 1008.9 |
| 20260506164502 | 73 | 195 | 3.0 | 8.0 | 0.00 | 0.00 | 0.00 | 65 | 1009.0 |
| 20260506164000 | 73 | 197 | 6.0 | 8.0 | 0.00 | 0.00 | 0.00 | 65 | 1009.1 |
| 20260506163455 | 73 | 192 | 2.0 | 6.0 | 0.00 | 0.00 | 0.00 | 66 | 1009.6 |
| 20260506162950 | 73 | 188 | 2.0 | 2.0 | 0.00 | 0.00 | 0.00 | 65 | 1009.4 |
| 20260506162448 | 73 | 196 | 1.0 | 3.0 | 0.00 | 0.00 | 0.00 | 66 | 1009.8 |
| 20260506161945 | 73 | 195 | 1.0 | 6.0 | 0.00 | 0.00 | 0.00 | 66 | 1009.5 |
| 20260506161443 | 73 | 171 | 2.0 | 14.0 | 0.00 | 0.00 | 0.00 | 66 | 1010.1 |
| 20260506160940 | 73 | 152 | 4.0 | 13.0 | 0.00 | 0.00 | 0.00 | 65 | 1010.0 |
| 20260506160438 | 73 | 214 | 3.0 | 7.0 | 0.00 | 0.00 | 0.00 | 65 | 1010.0 |
| 20260506155935 | 72 | 150 | 1.0 | 2.0 | 0.00 | 0.00 | 0.00 | 66 | 1009.9 |
| 20260506155433 | 72 | 194 | 2.0 | 3.0 | 0.00 | 0.00 | 0.00 | 67 | 1009.9 |
| 20260506153559 | 72 | 194 | 3.0 | 3.0 | 0.00 | 0.00 | 0.00 | 66 | 1009.9 |
| 20260506153057 | 72 | 264 | 4.0 | 7.0 | 0.00 | 0.00 | 0.00 | 65 | 1010.2 |
| 20260506152553 | 72 | 202 | 4.0 | 8.0 | 0.00 | 0.00 | 0.00 | 65 | 1010.3 |
| 20260506152052 | 72 | 229 | 2.0 | 2.0 | 0.00 | 0.00 | 0.00 | 65 | 1010.2 |
| 20260506151549 | 73 | 240 | 5.0 | 11.0 | 0.00 | 0.00 | 0.00 | 64 | 1010.2 |
| 20260506151046 | 73 | 153 | 5.0 | 8.0 | 0.00 | 0.00 | 0.00 | 64 | 1010.3 |
| 20260506150542 | 72 | 195 | 4.0 | 6.0 | 0.00 | 0.00 | 0.00 | 64 | 1010.1 |
| 20260506150040 | 72 | 214 | 2.0 | 8.0 | 0.00 | 0.00 | 0.00 | 65 | 1010.1 |
| 20260506145536 | 73 | 261 | 9.0 | 10.0 | 0.00 | 0.00 | 0.00 | 63 | 1010.2 |
| 20260506145034 | 72 | 176 | 3.0 | 9.0 | 0.00 | 0.00 | 0.00 | 64 | 1010.5 |
| 20260506144530 | 72 | 79 | 4.0 | 7.0 | 0.00 | 0.00 | 0.00 | 64 | 1010.2 |
| 20260506144028 | 72 | 170 | 2.0 | 8.0 | 0.00 | 0.00 | 0.00 | 65 | 1010.4 |
| 20260506143525 | 72 | 161 | 5.0 | 8.0 | 0.00 | 0.00 | 0.00 | 65 | 1010.1 |
| 20260506143024 | 71 | 200 | 1.0 | 5.0 | 0.00 | 0.00 | 0.00 | 66 | 1010.3 |
| 20260506142521 | 71 | 175 | 4.0 | 10.0 | 0.00 | 0.00 | 0.00 | 65 | 1010.5 |
| 20260506142019 | 72 | 155 | 3.0 | 7.0 | 0.00 | 0.00 | 0.00 | 65 | 1010.5 |
| 20260506141517 | 73 | 185 | 5.0 | 7.0 | 0.00 | 0.00 | 0.00 | 66 | 1010.8 |
| 20260506141015 | 72 | 186 | 2.0 | 5.0 | 0.00 | 0.00 | 0.00 | 64 | 1010.5 |
| 20260506140512 | 72 | 69 | 3.0 | 5.0 | 0.00 | 0.00 | 0.00 | 65 | 1010.5 |
| 20260506140009 | 71 | 202 | 2.0 | 5.0 | 0.00 | 0.00 | 0.00 | 66 | 1010.6 |
| 20260506135506 | 71 | 181 | 2.0 | 6.0 | 0.00 | 0.00 | 0.00 | 66 | 1010.6 |
| 20260506135002 | 70 | 214 | 5.0 | 7.0 | 0.00 | 0.00 | 0.00 | 66 | 1010.3 |
| 20260506134458 | 69 | 185 | 2.0 | 9.0 | 0.00 | 0.00 | 0.00 | 68 | 1010.5 |
| 20260506133954 | 69 | 204 | 2.0 | 5.0 | 0.00 | 0.00 | 0.00 | 68 | 1010.5 |
| 20260506133411 | 70 | 125 | 3.0 | 9.0 | 0.00 | 0.00 | 0.00 | 66 | 1010.6 |
| 20260506132908 | 70 | 125 | 3.0 | 9.0 | 0.00 | 0.00 | 0.00 | 66 | 1010.6 |
| 20260506132405 | 71 | 179 | 1.0 | 1.0 | 0.00 | 0.00 | 0.00 | 66 | 1010.6 |
| 20260506131903 | 70 | 184 | 1.0 | 6.0 | 0.00 | 0.00 | 0.00 | 67 | 1010.8 |
| 20260506131359 | 70 | 186 | 2.0 | 5.0 | 0.00 | 0.00 | 0.00 | 67 | 1010.9 |
| 20260506130856 | 71 | 165 | 2.0 | 3.0 | 0.00 | 0.00 | 0.00 | 67 | 1011.1 |
| 20260506130352 | 71 | 251 | 9.0 | 11.0 | 0.00 | 0.00 | 0.00 | 65 | 1010.8 |
| 20260506125851 | 71 | 196 | 3.0 | 6.0 | 0.00 | 0.00 | 0.00 | 65 | 1010.8 |
| 20260506125349 | 71 | 140 | 4.0 | 5.0 | 0.00 | 0.00 | 0.00 | 67 | 1010.8 |
| 20260506124847 | 71 | 221 | 1.0 | 2.0 | 0.00 | 0.00 | 0.00 | 68 | 1010.8 |
| 20260506124343 | 70 | 220 | 5.0 | 7.0 | 0.00 | 0.00 | 0.00 | 69 | 1010.9 |
| 20260506123841 | 70 | 185 | 2.0 | 3.0 | 0.00 | 0.00 | 0.00 | 68 | 1010.8 |
| 20260506123339 | 70 | 175 | 4.0 | 6.0 | 0.00 | 0.00 | 0.00 | 69 | 1011.0 |
| 20260506122836 | 69 | 186 | 1.0 | 1.0 | 0.00 | 0.00 | 0.00 | 70 | 1010.9 |
| 20260506122333 | 69 | 199 | 4.0 | 13.0 | 0.00 | 0.00 | 0.00 | 70 | 1010.8 |
| 20260506121831 | 68 | 128 | 1.0 | 6.0 | 0.00 | 0.00 | 0.00 | 71 | 1011.1 |
| 20260506121328 | 67 | 186 | 5.0 | 7.0 | 0.00 | 0.00 | 0.00 | 73 | 1011.0 |
| 20260506120825 | 67 | 187 | 1.0 | 2.0 | 0.00 | 0.00 | 0.00 | 74 | 1010.9 |
| 20260506120323 | 68 | 195 | 1.0 | 1.0 | 0.00 | 0.00 | 0.00 | 73 | 1010.9 |
| 20260506115820 | 67 | 132 | 3.0 | 5.0 | 0.00 | 0.00 | 0.00 | 74 | 1010.8 |
| 20260506115318 | 65 | 179 | 1.0 | 2.0 | 0.00 | 0.00 | 0.00 | 78 | 1011.0 |
| 20260506114816 | 65 | 179 | 1.0 | 2.0 | 0.00 | 0.00 | 0.00 | 78 | 1010.8 |
| 20260506114314 | 65 | 205 | 2.0 | 6.0 | 0.00 | 0.00 | 0.00 | 78 | 1010.7 |
| 20260506113812 | 64 | 184 | 5.0 | 6.0 | 0.00 | 0.00 | 0.00 | 79 | 1010.8 |
| 20260506113309 | 64 | 168 | 2.0 | 2.0 | 0.00 | 0.00 | 0.00 | 81 | 1011.2 |
| 20260506112805 | 63 | 175 | 1.0 | 3.0 | 0.00 | 0.00 | 0.00 | 82 | 1011.0 |
| 20260506112305 | 63 | 192 | 1.0 | 2.0 | 0.00 | 0.00 | 0.00 | 83 | 1010.9 |
| 20260506111800 | 62 | 172 | 1.0 | 5.0 | 0.00 | 0.00 | 0.00 | 83 | 1010.9 |
| 20260506111258 | 62 | 193 | 1.0 | 3.0 | 0.00 | 0.00 | 0.00 | 84 | 1011.0 |
| 20260506110755 | 62 | 202 | 1.0 | 2.0 | 0.00 | 0.00 | 0.00 | 85 | 1011.0 |
| 20260506110252 | 62 | 208 | 2.0 | 2.0 | 0.00 | 0.00 | 0.00 | 85 | 1010.9 |
| 20260506105749 | 62 | 212 | 3.0 | 3.0 | 0.00 | 0.00 | 0.00 | 85 | 1011.0 |
| 20260506105246 | 61 | 159 | 1.0 | 2.0 | 0.00 | 0.00 | 0.00 | 86 | 1010.8 |
| 20260506104743 | 61 | 189 | 0.0 | 1.0 | 0.00 | 0.00 | 0.00 | 86 | 1010.8 |
| 20260506104241 | 60 | 181 | 1.0 | 1.0 | 0.00 | 0.00 | 0.00 | 86 | 1010.7 |
| 20260506103738 | 60 | 179 | 1.0 | 1.0 | 0.00 | 0.00 | 0.00 | 87 | 1011.0 |
| 20260506103235 | 60 | 152 | 3.0 | 5.0 | 0.00 | 0.00 | 0.00 | 87 | 1010.8 |
| 20260506102733 | 60 | 176 | 1.0 | 1.0 | 0.00 | 0.00 | 0.00 | 88 | 1010.6 |
| 20260506102231 | 60 | 187 | 0.0 | 0.0 | 0.00 | 0.00 | 0.00 | 88 | 1010.6 |
| 20260506101727 | 60 | 202 | 3.0 | 3.0 | 0.00 | 0.00 | 0.00 | 88 | 1010.7 |
| 20260506101224 | 60 | 177 | 3.0 | 3.0 | 0.00 | 0.00 | 0.00 | 88 | 1010.7 |
| 20260506100722 | 60 | 173 | 3.0 | 5.0 | 0.00 | 0.00 | 0.00 | 89 | 1010.5 |
| 20260506100220 | 60 | 191 | 0.0 | 0.0 | 0.00 | 0.00 | 0.00 | 89 | 1010.5 |
| 20260506095718 | 60 | 187 | 1.0 | 2.0 | 0.00 | 0.00 | 0.00 | 89 | 1010.9 |
| 20260506095215 | 60 | 204 | 1.0 | 2.0 | 0.00 | 0.00 | 0.00 | 89 | 1010.5 |
| 20260506094712 | 60 | 184 | 1.0 | 3.0 | 0.00 | 0.00 | 0.00 | 90 | 1010.4 |
| 20260506094210 | 60 | 192 | 0.0 | 1.0 | 0.00 | 0.00 | 0.00 | 89 | 1010.6 |
| 20260506093708 | 60 | 185 | 1.0 | 3.0 | 0.00 | 0.00 | 0.00 | 89 | 1010.6 |
| 20260506093205 | 60 | 182 | 0.0 | 2.0 | 0.00 | 0.00 | 0.00 | 90 | 1010.7 |
| 20260506092702 | 60 | 191 | 1.0 | 2.0 | 0.00 | 0.00 | 0.00 | 90 | 1010.7 |
| 20260506092200 | 60 | 177 | 1.0 | 2.0 | 0.00 | 0.00 | 0.00 | 90 | 1010.8 |
| 20260506091658 | 60 | 197 | 0.0 | 2.0 | 0.00 | 0.00 | 0.00 | 90 | 1010.9 |
| 20260506091155 | 60 | 184 | 0.0 | 3.0 | 0.00 | 0.00 | 0.00 | 90 | 1010.5 |
| 20260506090653 | 60 | 182 | 2.0 | 3.0 | 0.00 | 0.00 | 0.00 | 89 | 1010.8 |
| 20260506090149 | 60 | 185 | 1.0 | 1.0 | 0.00 | 0.00 | 0.00 | 89 | 1010.6 |
| 20260506085646 | 60 | 157 | 2.0 | 3.0 | 0.00 | 0.00 | 0.00 | 90 | 1010.9 |
| 20260506085142 | 60 | 192 | 0.0 | 1.0 | 0.00 | 0.00 | 0.00 | 89 | 1010.7 |
| 20260506084639 | 60 | 191 | 0.0 | 2.0 | 0.00 | 0.00 | 0.00 | 90 | 1010.9 |
| 20260506084136 | 60 | 186 | 1.0 | 2.0 | 0.00 | 0.00 | 0.00 | 90 | 1011.0 |
| 20260506083632 | 60 | 183 | 1.0 | 2.0 | 0.00 | 0.00 | 0.00 | 90 | 1011.3 |
| 20260506083130 | 60 | 172 | 1.0 | 1.0 | 0.00 | 0.00 | 0.00 | 89 | 1011.1 |
| 20260506082627 | 60 | 177 | 2.0 | 3.0 | 0.00 | 0.00 | 0.00 | 90 | 1011.1 |
| 20260506082122 | 60 | 176 | 1.0 | 2.0 | 0.00 | 0.00 | 0.00 | 90 | 1011.0 |
| 20260506081621 | 60 | 194 | 1.0 | 1.0 | 0.00 | 0.00 | 0.00 | 90 | 1011.0 |
| 20260506081118 | 60 | 191 | 2.0 | 3.0 | 0.00 | 0.00 | 0.00 | 90 | 1011.0 |
| 20260506080616 | 60 | 190 | 0.0 | 2.0 | 0.00 | 0.00 | 0.00 | 90 | 1011.1 |
| 20260506080112 | 60 | 183 | 1.0 | 2.0 | 0.00 | 0.00 | 0.00 | 90 | 1010.8 |
| 20260506073056 | 60 | 169 | 0.0 | 1.0 | 0.00 | 0.00 | 0.00 | 89 | 1011.1 |
| 20260506072552 | 60 | 189 | 1.0 | 2.0 | 0.00 | 0.00 | 0.00 | 89 | 1011.2 |
| 20260506072051 | 60 | 184 | 0.0 | 0.0 | 0.00 | 0.00 | 0.00 | 89 | 1011.0 |
| 20260506071548 | 61 | 186 | 0.0 | 0.0 | 0.00 | 0.00 | 0.00 | 88 | 1011.1 |
| 20260506071045 | 61 | 184 | 0.0 | 1.0 | 0.00 | 0.00 | 0.00 | 88 | 1011.4 |
| 20260506070542 | 61 | 188 | 1.0 | 2.0 | 0.00 | 0.00 | 0.00 | 88 | 1011.4 |
| 20260506062016 | 62 | 185 | 0.0 | 1.0 | 0.00 | 0.00 | 0.00 | 85 | 1011.3 |
| 20260506061512 | 63 | 185 | 1.0 | 2.0 | 0.00 | 0.00 | 0.00 | 84 | 1011.3 |
| 20260506061010 | 63 | 165 | 2.0 | 2.0 | 0.00 | 0.00 | 0.00 | 84 | 1011.5 |
| 20260506060508 | 63 | 182 | 1.0 | 1.0 | 0.00 | 0.00 | 0.00 | 84 | 1011.1 |
| 20260506050937 | 63 | 181 | 1.0 | 2.0 | 0.00 | 0.00 | 0.00 | 83 | 1011.7 |
| 20260506050435 | 63 | 160 | 2.0 | 3.0 | 0.00 | 0.00 | 0.00 | 83 | 1011.5 |
| 20260506044925 | 63 | 267 | 3.0 | 8.0 | 0.00 | 0.00 | 0.00 | 83 | 1011.7 |
| 20260506044424 | 63 | 172 | 0.0 | 1.0 | 0.00 | 0.00 | 0.00 | 83 | 1011.7 |
| 20260506043920 | 63 | 194 | 0.0 | 1.0 | 0.00 | 0.00 | 0.00 | 83 | 1011.8 |
| 20260506043417 | 63 | 182 | 2.0 | 3.0 | 0.00 | 0.00 | 0.00 | 83 | 1011.7 |
| 20260506042915 | 63 | 175 | 1.0 | 1.0 | 0.00 | 0.00 | 0.00 | 82 | 1011.7 |
| 20260506042414 | 63 | 175 | 1.0 | 1.0 | 0.00 | 0.00 | 0.00 | 82 | 1011.7 |
| 20260506041912 | 64 | 181 | 1.0 | 1.0 | 0.00 | 0.00 | 0.00 | 81 | 1011.6 |
| 20260506041409 | 64 | 181 | 1.0 | 1.0 | 0.00 | 0.00 | 0.00 | 81 | 1011.7 |
| 20260506040906 | 64 | 188 | 0.0 | 1.0 | 0.00 | 0.00 | 0.00 | 81 | 1011.8 |
| 20260506040404 | 64 | 188 | 1.0 | 1.0 | 0.00 | 0.00 | 0.00 | 81 | 1011.7 |
| 20260506035859 | 64 | 95 | 3.0 | 7.0 | 0.00 | 0.00 | 0.00 | 81 | 1011.6 |
| 20260506035357 | 64 | 186 | 1.0 | 1.0 | 0.00 | 0.00 | 0.00 | 80 | 1011.6 |
| 20260506034854 | 65 | 166 | 1.0 | 1.0 | 0.00 | 0.00 | 0.00 | 79 | 1011.6 |
| 20260506034351 | 65 | 182 | 2.0 | 2.0 | 0.00 | 0.00 | 0.00 | 79 | 1011.6 |
| 20260506033848 | 65 | 183 | 2.0 | 5.0 | 0.00 | 0.00 | 0.00 | 78 | 1011.6 |
| 20260506033345 | 65 | 186 | 1.0 | 1.0 | 0.00 | 0.00 | 0.00 | 78 | 1011.5 |
| 20260506032842 | 65 | 183 | 2.0 | 2.0 | 0.00 | 0.00 | 0.00 | 77 | 1011.7 |
| 20260506032339 | 65 | 193 | 2.0 | 3.0 | 0.00 | 0.00 | 0.00 | 78 | 1011.7 |
| 20260506031836 | 66 | 183 | 2.0 | 2.0 | 0.00 | 0.00 | 0.00 | 77 | 1011.8 |
| 20260506031333 | 65 | 150 | 2.0 | 5.0 | 0.00 | 0.00 | 0.00 | 77 | 1011.7 |
| 20260506030831 | 65 | 193 | 3.0 | 3.0 | 0.00 | 0.00 | 0.00 | 77 | 1011.8 |
| 20260506030329 | 65 | 177 | 3.0 | 3.0 | 0.00 | 0.00 | 0.00 | 77 | 1011.8 |
| 20260506025825 | 65 | 172 | 1.0 | 2.0 | 0.00 | 0.00 | 0.00 | 77 | 1011.7 |
| 20260506025321 | 65 | 183 | 1.0 | 3.0 | 0.00 | 0.00 | 0.00 | 77 | 1011.9 |
| 20260506024819 | 65 | 168 | 1.0 | 1.0 | 0.00 | 0.00 | 0.00 | 78 | 1011.8 |
| 20260506024315 | 65 | 193 | 1.0 | 1.0 | 0.00 | 0.00 | 0.00 | 77 | 1011.9 |
| 20260506023812 | 66 | 157 | 1.0 | 1.0 | 0.00 | 0.00 | 0.00 | 76 | 1012.0 |
| 20260506023309 | 66 | 157 | 1.0 | 2.0 | 0.00 | 0.00 | 0.00 | 76 | 1011.7 |
| 20260506022805 | 66 | 195 | 1.0 | 2.0 | 0.00 | 0.00 | 0.00 | 76 | 1011.8 |
| 20260506022305 | 66 | 187 | 0.0 | 0.0 | 0.00 | 0.00 | 0.00 | 77 | 1011.8 |
| 20260506021801 | 66 | 173 | 1.0 | 1.0 | 0.00 | 0.00 | 0.00 | 76 | 1011.9 |
| 20260506021258 | 66 | 163 | 2.0 | 5.0 | 0.00 | 0.00 | 0.00 | 76 | 1011.9 |
| 20260506020754 | 66 | 189 | 1.0 | 5.0 | 0.00 | 0.00 | 0.00 | 76 | 1011.8 |
| 20260506020252 | 66 | 184 | 1.0 | 2.0 | 0.00 | 0.00 | 0.00 | 76 | 1011.9 |
| 20260506015750 | 66 | 153 | 1.0 | 2.0 | 0.00 | 0.00 | 0.00 | 76 | 1011.7 |
| 20260506015247 | 66 | 170 | 1.0 | 3.0 | 0.00 | 0.00 | 0.00 | 76 | 1011.8 |
| 20260506014744 | 66 | 170 | 1.0 | 3.0 | 0.00 | 0.00 | 0.00 | 76 | 1011.8 |
| 20260506014240 | 66 | 188 | 1.0 | 1.0 | 0.00 | 0.00 | 0.00 | 76 | 1011.7 |
| 20260506013737 | 66 | 192 | 1.0 | 7.0 | 0.00 | 0.00 | 0.00 | 76 | 1011.5 |
| 20260506013235 | 66 | 191 | 4.0 | 5.0 | 0.00 | 0.00 | 0.00 | 76 | 1011.7 |
| 20260506012731 | 66 | 189 | 0.0 | 2.0 | 0.00 | 0.00 | 0.00 | 76 | 1011.5 |
| 20260506012228 | 65 | 184 | 3.0 | 5.0 | 0.00 | 0.00 | 0.00 | 76 | 1011.5 |
| 20260506011725 | 66 | 148 | 3.0 | 3.0 | 0.00 | 0.00 | 0.00 | 75 | 1011.5 |
| 20260506011221 | 66 | 192 | 5.0 | 8.0 | 0.00 | 0.00 | 0.00 | 73 | 1011.4 |
| 20260506010720 | 66 | 192 | 5.0 | 8.0 | 0.00 | 0.00 | 0.00 | 73 | 1011.2 |
| 20260506010217 | 66 | 156 | 1.0 | 2.0 | 0.00 | 0.00 | 0.00 | 73 | 1011.2 |
| 20260506005714 | 66 | 170 | 0.0 | 2.0 | 0.00 | 0.00 | 0.00 | 73 | 1011.3 |
| 20260506005211 | 66 | 185 | 0.0 | 1.0 | 0.00 | 0.00 | 0.00 | 72 | 1011.2 |
| 20260506004706 | 67 | 181 | 3.0 | 3.0 | 0.00 | 0.00 | 0.00 | 71 | 1011.1 |
| 20260506004204 | 67 | 187 | 1.0 | 1.0 | 0.00 | 0.00 | 0.00 | 70 | 1011.1 |
| 20260506003700 | 67 | 188 | 4.0 | 7.0 | 0.00 | 0.00 | 0.00 | 69 | 1011.1 |
| 20260506003157 | 68 | 201 | 2.0 | 3.0 | 0.00 | 0.00 | 0.00 | 69 | 1011.0 |
| 20260506002652 | 67 | 138 | 4.0 | 6.0 | 0.00 | 0.00 | 0.00 | 68 | 1011.0 |
| 20260506002149 | 67 | 171 | 2.0 | 3.0 | 0.00 | 0.00 | 0.00 | 69 | 1011.0 |
| 20260506001644 | 68 | 139 | 2.0 | 3.0 | 0.00 | 0.00 | 0.00 | 68 | 1011.2 |
| 20260506001142 | 68 | 136 | 7.0 | 8.0 | 0.00 | 0.00 | 0.00 | 67 | 1010.9 |
| 20260506000639 | 68 | 136 | 7.0 | 8.0 | 0.00 | 0.00 | 0.00 | 67 | 1010.9 |
| 20260506000136 | 69 | 141 | 3.0 | 5.0 | 0.00 | 0.00 | 0.00 | 66 | 1010.9 |
| 20260505235634 | 69 | 141 | 3.0 | 5.0 | 0.00 | 0.00 | 0.00 | 66 | 1010.9 |
| 20260505235131 | 69 | 184 | 0.0 | 2.0 | 0.00 | 0.00 | 0.00 | 66 | 1010.9 |
| 20260505234628 | 69 | 195 | 1.0 | 1.0 | 0.00 | 0.00 | 0.00 | 65 | 1010.9 |
| 20260505234125 | 70 | 187 | 2.0 | 3.0 | 0.00 | 0.00 | 0.00 | 63 | 1010.6 |
| 20260505233622 | 70 | 178 | 2.0 | 2.0 | 0.00 | 0.00 | 0.00 | 63 | 1010.7 |
| 20260505233120 | 70 | 219 | 3.0 | 3.0 | 0.00 | 0.00 | 0.00 | 62 | 1010.8 |
| 20260505232617 | 71 | 63 | 3.0 | 3.0 | 0.00 | 0.00 | 0.00 | 62 | 1010.4 |
| 20260505232115 | 71 | 180 | 1.0 | 2.0 | 0.00 | 0.00 | 0.00 | 61 | 1010.6 |
| 20260505231611 | 71 | 113 | 3.0 | 3.0 | 0.00 | 0.00 | 0.00 | 61 | 1010.5 |
| 20260505231110 | 72 | 194 | 0.0 | 1.0 | 0.00 | 0.00 | 0.00 | 61 | 1010.5 |
| 20260505230608 | 72 | 202 | 4.0 | 6.0 | 0.00 | 0.00 | 0.00 | 60 | 1010.4 |
| 20260505225600 | 72 | 194 | 2.0 | 3.0 | 0.00 | 0.00 | 0.00 | 60 | 1010.3 |
| 20260505225056 | 72 | 190 | 0.0 | 3.0 | 0.00 | 0.00 | 0.00 | 60 | 1010.3 |
| 20260505224553 | 73 | 187 | 0.0 | 3.0 | 0.00 | 0.00 | 0.00 | 59 | 1010.5 |
| 20260505224051 | 73 | 173 | 3.0 | 3.0 | 0.00 | 0.00 | 0.00 | 59 | 1010.4 |
| 20260505223548 | 74 | 162 | 4.0 | 5.0 | 0.00 | 0.00 | 0.00 | 57 | 1010.3 |
| 20260505223044 | 74 | 76 | 1.0 | 6.0 | 0.00 | 0.00 | 0.00 | 56 | 1010.0 |
| 20260505222540 | 75 | 177 | 2.0 | 3.0 | 0.00 | 0.00 | 0.00 | 55 | 1010.2 |
| 20260505222037 | 75 | 200 | 1.0 | 5.0 | 0.00 | 0.00 | 0.00 | 54 | 1010.3 |
| 20260505221534 | 75 | 188 | 2.0 | 3.0 | 0.00 | 0.00 | 0.00 | 55 | 1010.2 |
| 20260505221030 | 76 | 163 | 3.0 | 6.0 | 0.00 | 0.00 | 0.00 | 55 | 1010.2 |
| 20260505220527 | 76 | 293 | 6.0 | 7.0 | 0.00 | 0.00 | 0.00 | 54 | 1010.2 |
| 20260505220025 | 76 | 120 | 1.0 | 2.0 | 0.00 | 0.00 | 0.00 | 54 | 1010.0 |
| 20260505215523 | 76 | 165 | 2.0 | 8.0 | 0.00 | 0.00 | 0.00 | 54 | 1009.9 |
| 20260505215021 | 77 | 154 | 1.0 | 5.0 | 0.00 | 0.00 | 0.00 | 53 | 1009.9 |
| 20260505214519 | 77 | 195 | 4.0 | 8.0 | 0.00 | 0.00 | 0.00 | 52 | 1009.7 |
| 20260505214015 | 79 | 153 | 4.0 | 7.0 | 0.00 | 0.00 | 0.00 | 50 | 1009.8 |
| 20260505213513 | 79 | 175 | 6.0 | 8.0 | 0.00 | 0.00 | 0.00 | 48 | 1009.4 |
| 20260505213009 | 78 | 186 | 2.0 | 7.0 | 0.00 | 0.00 | 0.00 | 51 | 1009.6 |
| 20260505212506 | 78 | 171 | 2.0 | 2.0 | 0.00 | 0.00 | 0.00 | 51 | 1009.4 |
| 20260505212003 | 79 | 67 | 2.0 | 9.0 | 0.00 | 0.00 | 0.00 | 50 | 1009.2 |
| 20260505211500 | 78 | 167 | 2.0 | 8.0 | 0.00 | 0.00 | 0.00 | 51 | 1009.4 |
| 20260505210956 | 78 | 179 | 5.0 | 7.0 | 0.00 | 0.00 | 0.00 | 50 | 1009.4 |
| 20260505210453 | 79 | 185 | 2.0 | 5.0 | 0.00 | 0.00 | 0.00 | 50 | 1009.4 |
| 20260505205950 | 78 | 174 | 4.0 | 7.0 | 0.00 | 0.00 | 0.00 | 50 | 1009.3 |
| 20260505205449 | 80 | 197 | 3.0 | 7.0 | 0.00 | 0.00 | 0.00 | 50 | 1009.4 |
| 20260505204945 | 80 | 197 | 3.0 | 7.0 | 0.00 | 0.00 | 0.00 | 50 | 1009.4 |
| 20260505204443 | 80 | 89 | 4.0 | 8.0 | 0.00 | 0.00 | 0.00 | 48 | 1009.2 |
| 20260505203940 | 82 | 81 | 5.0 | 8.0 | 0.00 | 0.00 | 0.00 | 46 | 1009.3 |
| 20260505203436 | 81 | 179 | 2.0 | 5.0 | 0.00 | 0.00 | 0.00 | 47 | 1009.2 |
| 20260505202933 | 82 | 164 | 3.0 | 5.0 | 0.00 | 0.00 | 0.00 | 46 | 1009.3 |
| 20260505202429 | 82 | 191 | 3.0 | 6.0 | 0.00 | 0.00 | 0.00 | 48 | 1009.2 |
| 20260505201926 | 81 | 174 | 3.0 | 6.0 | 0.00 | 0.00 | 0.00 | 48 | 1009.2 |
| 20260505201423 | 82 | 197 | 2.0 | 10.0 | 0.00 | 0.00 | 0.00 | 49 | 1009.3 |
| 20260505200921 | 82 | 113 | 6.0 | 9.0 | 0.00 | 0.00 | 0.00 | 46 | 1009.6 |
| 20260505200418 | 84 | 167 | 2.0 | 6.0 | 0.00 | 0.00 | 0.00 | 44 | 1009.4 |
| 20260505195913 | 86 | 190 | 1.0 | 7.0 | 0.00 | 0.00 | 0.00 | 45 | 1009.2 |
| 20260505195411 | 85 | 195 | 2.0 | 7.0 | 0.00 | 0.00 | 0.00 | 38 | 1009.1 |
| 20260505194908 | 85 | 187 | 3.0 | 11.0 | 0.00 | 0.00 | 0.00 | 38 | 1009.2 |
| 20260505194406 | 85 | 175 | 1.0 | 8.0 | 0.00 | 0.00 | 0.00 | 40 | 1009.4 |
| 20260505193905 | 84 | 174 | 3.0 | 7.0 | 0.00 | 0.00 | 0.00 | 38 | 1009.6 |
| 20260505193404 | 84 | 153 | 3.0 | 10.0 | 0.00 | 0.00 | 0.00 | 38 | 1009.7 |
| 20260505192901 | 84 | 270 | 4.0 | 13.0 | 0.00 | 0.00 | 0.00 | 39 | 1009.8 |
| 20260505192359 | 85 | 201 | 2.0 | 9.0 | 0.00 | 0.00 | 0.00 | 37 | 1009.8 |
| 20260505191856 | 84 | 207 | 5.0 | 8.0 | 0.00 | 0.00 | 0.00 | 39 | 1009.7 |
| 20260505191355 | 84 | 217 | 6.0 | 8.0 | 0.00 | 0.00 | 0.00 | 38 | 1009.7 |
| 20260505190851 | 85 | 191 | 1.0 | 7.0 | 0.00 | 0.00 | 0.00 | 40 | 1009.9 |
| 20260505190347 | 85 | 173 | 1.0 | 5.0 | 0.00 | 0.00 | 0.00 | 40 | 1009.9 |
| 20260505185842 | 84 | 130 | 2.0 | 7.0 | 0.00 | 0.00 | 0.00 | 40 | 1010.0 |
| 20260505185339 | 84 | 173 | 3.0 | 11.0 | 0.00 | 0.00 | 0.00 | 39 | 1010.3 |
| 20260505184835 | 84 | 202 | 2.0 | 7.0 | 0.00 | 0.00 | 0.00 | 42 | 1010.2 |
| 20260505184332 | 84 | 214 | 5.0 | 7.0 | 0.00 | 0.00 | 0.00 | 39 | 1010.1 |
| 20260505183830 | 84 | 183 | 3.0 | 5.0 | 0.00 | 0.00 | 0.00 | 41 | 1010.0 |
| 20260505183326 | 84 | 209 | 4.0 | 6.0 | 0.00 | 0.00 | 0.00 | 43 | 1010.1 |